Time;durP1;ratioP1;P1;durP2;ratioP2;P2;SDS_P1;SDS_P2;PMS_P1;PMS_P2;Temp;Humidity;BMP_temperature;BMP_pressure;BME280_temperature;BME280_humidity;BME280_pressure;Samples;Min_cycle;Max_cycle;Signal;HPM_P1;HPM_P2
2021/10/23 00:01:37;;;;;;;3.67;1.23;;;15.40;86.70;;;;;;4210832;28;20048;-64
2021/10/23 00:03:59;;;;;;;2.83;0.98;;;15.40;86.80;;;;;;4210923;28;20051;-65
2021/10/23 00:06:21;;;;;;;4.47;1.50;;;15.40;86.70;;;;;;4210986;28;20127;-64
2021/10/23 00:08:45;;;;;;;6.65;1.38;;;15.40;86.50;;;;;;4210579;28;20089;-64
2021/10/23 00:11:07;;;;;;;4.20;1.42;;;15.40;86.40;;;;;;4210637;28;20120;-64
2021/10/23 00:13:29;;;;;;;1.77;0.77;;;15.40;86.40;;;;;;4210802;28;20536;-64
2021/10/23 00:15:52;;;;;;;2.08;0.90;;;15.40;86.50;;;;;;4211034;28;20054;-64
2021/10/23 00:18:15;;;;;;;4.55;1.38;;;15.30;86.70;;;;;;4210656;28;20052;-64
2021/10/23 00:20:36;;;;;;;4.00;0.95;;;15.30;86.50;;;;;;4210573;28;20123;-64
2021/10/23 00:22:59;;;;;;;11.43;1.90;;;15.30;86.50;;;;;;4211531;27;20418;-64
2021/10/23 00:25:22;;;;;;;1.20;0.90;;;15.30;86.60;;;;;;4209248;28;20154;-64
2021/10/23 00:27:44;;;;;;;4.15;1.42;;;15.30;86.20;;;;;;4212717;27;20048;-64
2021/10/23 00:30:07;;;;;;;3.92;1.65;;;15.30;86.30;;;;;;4227258;27;20702;-64
2021/10/23 00:32:30;;;;;;;4.07;1.00;;;15.30;86.50;;;;;;4227513;27;20060;-65
2021/10/23 00:34:53;;;;;;;4.22;1.23;;;15.30;86.30;;;;;;4223426;27;20433;-65
2021/10/23 00:37:14;;;;;;;3.03;1.63;;;15.30;86.60;;;;;;4209345;28;20524;-64
2021/10/23 00:39:37;;;;;;;4.90;1.42;;;15.30;86.90;;;;;;4209142;28;20047;-64
2021/10/23 00:42:02;;;;;;;5.82;1.38;;;15.30;86.60;;;;;;4209450;28;20494;-64
2021/10/23 00:44:29;;;;;;;2.90;1.13;;;15.30;86.70;;;;;;4208840;28;20085;-65
2021/10/23 00:46:51;;;;;;;3.65;1.45;;;15.30;86.40;;;;;;4208799;28;20056;-65
2021/10/23 00:49:13;;;;;;;5.15;1.52;;;15.30;87.10;;;;;;4192531;28;20060;-64
2021/10/23 00:51:36;;;;;;;3.00;1.02;;;15.30;86.70;;;;;;4192689;28;20127;-64
2021/10/23 00:53:58;;;;;;;3.92;1.10;;;15.30;87.10;;;;;;4192386;28;20060;-65
2021/10/23 00:56:20;;;;;;;4.50;1.55;;;15.30;87.20;;;;;;4202088;28;20490;-64
2021/10/23 00:58:45;;;;;;;2.40;1.20;;;15.20;87.10;;;;;;4208800;28;20044;-64
2021/10/23 01:01:07;;;;;;;6.18;1.50;;;15.20;86.60;;;;;;4192532;28;20049;-64
2021/10/23 01:03:29;;;;;;;1.73;0.90;;;15.20;87.00;;;;;;4200893;28;20044;-64
2021/10/23 01:05:51;;;;;;;4.70;1.20;;;15.20;87.00;;;;;;4208764;28;20127;-64
2021/10/23 01:08:14;;;;;;;4.20;1.00;;;15.20;87.80;;;;;;4221451;27;20712;-65
2021/10/23 01:10:37;;;;;;;6.70;1.20;;;15.20;87.40;;;;;;4225853;27;20493;-65
2021/10/23 01:12:59;;;;;;;4.07;1.25;;;15.20;87.30;;;;;;4225265;27;20494;-65
2021/10/23 01:15:24;;;;;;;3.63;1.20;;;15.20;87.30;;;;;;4225264;27;20139;-65
2021/10/23 01:17:46;;;;;;;6.57;1.35;;;15.20;87.00;;;;;;4219431;27;20052;-65
2021/10/23 01:20:11;;;;;;;2.40;1.00;;;15.20;88.20;;;;;;4209552;28;20093;-65
2021/10/23 01:22:33;;;;;;;3.33;0.85;;;15.20;87.60;;;;;;4208854;28;20051;-65
2021/10/23 01:24:55;;;;;;;5.18;1.33;;;15.20;87.40;;;;;;4208999;28;20105;-65
2021/10/23 01:27:17;;;;;;;3.30;1.00;;;15.20;87.20;;;;;;4208540;28;20070;-64
2021/10/23 01:29:39;;;;;;;4.85;1.30;;;15.10;87.10;;;;;;4209468;28;20044;-65
2021/10/23 01:32:01;;;;;;;4.22;1.73;;;15.10;87.20;;;;;;4208716;28;20139;-65
2021/10/23 01:34:27;;;;;;;5.20;1.40;;;15.10;87.10;;;;;;4208647;28;20517;-65
2021/10/23 01:36:53;;;;;;;3.60;0.97;;;15.10;87.10;;;;;;4167989;28;1165593;-65
2021/10/23 01:39:15;;;;;;;5.22;1.33;;;15.10;87.50;;;;;;4192596;28;20443;-64
2021/10/23 01:41:38;;;;;;;2.80;1.05;;;15.10;87.80;;;;;;4192576;28;20040;-65
2021/10/23 01:44:01;;;;;;;4.30;1.35;;;15.10;87.50;;;;;;4192622;28;20118;-66
2021/10/23 01:46:23;;;;;;;5.75;1.38;;;15.10;87.40;;;;;;4195531;28;20052;-65
2021/10/23 01:48:44;;;;;;;2.78;0.82;;;15.10;87.80;;;;;;4221883;27;20050;-65
2021/10/23 01:51:06;;;;;;;3.53;1.17;;;15.10;87.90;;;;;;4221912;27;20433;-64
2021/10/23 01:53:32;;;;;;;4.80;1.35;;;15.10;87.70;;;;;;4225837;27;20051;-65
2021/10/23 01:55:55;;;;;;;3.13;1.33;;;15.10;87.60;;;;;;4224151;27;20051;-62
2021/10/23 01:58:17;;;;;;;4.10;1.38;;;15.10;88.10;;;;;;4211213;27;20188;-65
2021/10/23 02:00:39;;;;;;;2.88;0.93;;;15.10;88.20;;;;;;4209102;28;20060;-64
2021/10/23 02:03:01;;;;;;;8.00;1.90;;;15.00;87.90;;;;;;4208728;28;20048;-63
2021/10/23 02:05:23;;;;;;;2.97;1.30;;;15.00;87.90;;;;;;4192461;28;20121;-63
2021/10/23 02:07:45;;;;;;;6.78;1.63;;;15.00;88.20;;;;;;4207922;27;20711;-65
2021/10/23 02:10:10;;;;;;;2.75;1.38;;;15.00;88.40;;;;;;4220236;27;20048;-65
2021/10/23 02:12:32;;;;;;;4.40;1.27;;;15.10;88.40;;;;;;4208619;28;20066;-64
2021/10/23 02:14:54;;;;;;;3.45;1.20;;;15.10;88.30;;;;;;4208960;28;20044;-64
2021/10/23 02:17:16;;;;;;;3.72;0.80;;;15.00;88.20;;;;;;4214536;27;20051;-64
2021/10/23 02:19:39;;;;;;;2.67;0.95;;;15.00;88.30;;;;;;4225642;27;20062;-65
2021/10/23 02:22:01;;;;;;;2.83;1.10;;;15.00;88.60;;;;;;4225667;27;20550;-65
2021/10/23 02:24:23;;;;;;;3.72;1.15;;;15.00;88.40;;;;;;4225274;27;20044;-65
2021/10/23 02:26:47;;;;;;;3.15;0.88;;;15.00;88.20;;;;;;4222405;27;20090;-65
2021/10/23 02:29:09;;;;;;;4.75;1.42;;;15.00;88.10;;;;;;4208482;28;20055;-65
2021/10/23 02:31:32;;;;;;;4.38;0.90;;;15.00;88.40;;;;;;4208237;28;20498;-64
2021/10/23 02:33:54;;;;;;;3.08;0.88;;;15.00;88.30;;;;;;4208570;28;20044;-65
2021/10/23 02:36:17;;;;;;;3.60;1.38;;;15.00;88.40;;;;;;4208016;28;20074;-65
2021/10/23 02:38:39;;;;;;;3.10;1.00;;;15.00;88.40;;;;;;4209310;28;20446;-66
2021/10/23 02:41:02;;;;;;;3.78;1.23;;;15.10;89.10;;;;;;4208226;28;20066;-66
2021/10/23 02:43:26;;;;;;;5.28;1.05;;;15.20;89.00;;;;;;4208307;28;20497;-65
2021/10/23 02:45:49;;;;;;;2.85;1.20;;;15.30;88.70;;;;;;4208323;28;20077;-65
2021/10/23 02:48:12;;;;;;;2.05;0.80;;;15.40;88.50;;;;;;4206935;28;20455;-65
2021/10/23 02:50:34;;;;;;;2.45;1.00;;;15.50;88.00;;;;;;4220451;27;20512;-64
2021/10/23 02:52:56;;;;;;;6.88;1.45;;;15.50;87.60;;;;;;4223447;27;20136;-64
2021/10/23 02:55:19;;;;;;;4.38;1.27;;;15.50;87.20;;;;;;4225099;27;20059;-64
2021/10/23 02:57:41;;;;;;;5.00;1.02;;;15.60;87.40;;;;;;4225212;27;20104;-64
2021/10/23 03:00:07;;;;;;;4.05;1.33;;;15.60;87.40;;;;;;4225172;27;20112;-64
2021/10/23 03:02:29;;;;;;;2.30;0.98;;;15.60;87.20;;;;;;4191621;28;20051;-64
2021/10/23 03:04:52;;;;;;;3.25;0.90;;;15.60;87.20;;;;;;4191445;28;20071;-65
2021/10/23 03:07:15;;;;;;;2.45;0.90;;;15.60;87.00;;;;;;4191175;28;20217;-65
2021/10/23 03:09:37;;;;;;;3.13;1.17;;;15.60;87.40;;;;;;4210052;27;20043;-65
2021/10/23 03:11:59;;;;;;;3.78;1.38;;;15.50;88.00;;;;;;4224651;27;20391;-65
2021/10/23 03:14:21;;;;;;;2.45;1.08;;;15.50;87.40;;;;;;4224307;27;20134;-65
2021/10/23 03:16:45;;;;;;;3.40;1.05;;;15.50;87.40;;;;;;4208196;28;20044;-65
2021/10/23 03:19:07;;;;;;;3.95;1.10;;;15.50;87.40;;;;;;4207806;28;20117;-64
2021/10/23 03:21:29;;;;;;;2.97;0.93;;;15.50;87.60;;;;;;4207964;28;20494;-65
2021/10/23 03:23:51;;;;;;;4.70;1.10;;;15.60;87.70;;;;;;4207991;28;20032;-66
2021/10/23 03:26:13;;;;;;;1.65;0.82;;;15.60;87.30;;;;;;4207882;28;20766;-65
2021/10/23 03:28:39;;;;;;;2.22;0.82;;;15.60;87.10;;;;;;4218937;27;20062;-63
2021/10/23 03:31:01;;;;;;;5.65;0.88;;;15.70;87.20;;;;;;4224493;27;20054;-64
2021/10/23 03:33:24;;;;;;;5.55;1.45;;;15.70;86.90;;;;;;4223871;27;20056;-64
2021/10/23 03:35:46;;;;;;;4.28;1.20;;;15.80;86.60;;;;;;4224678;27;20046;-64
2021/10/23 03:38:09;;;;;;;2.85;0.85;;;15.70;86.60;;;;;;4224682;27;20124;-65
2021/10/23 03:40:31;;;;;;;3.22;1.35;;;15.70;86.70;;;;;;4223090;27;20044;-64
2021/10/23 03:42:53;;;;;;;4.60;1.30;;;15.70;86.60;;;;;;4224543;27;20413;-65
2021/10/23 03:45:16;;;;;;;3.38;1.25;;;15.70;86.80;;;;;;4224665;27;20490;-66
2021/10/23 03:47:37;;;;;;;3.33;0.82;;;15.70;86.70;;;;;;4223037;27;20490;-65
2021/10/23 03:50:01;;;;;;;2.17;0.90;;;15.70;86.80;;;;;;4191076;28;20130;-65
2021/10/23 03:52:23;;;;;;;2.42;0.93;;;15.70;86.50;;;;;;4191149;28;20048;-65
2021/10/23 03:54:45;;;;;;;3.33;0.90;;;15.70;86.80;;;;;;4191160;28;20075;-64
2021/10/23 03:57:07;;;;;;;3.05;1.50;;;15.70;86.80;;;;;;4206751;28;20058;-64
2021/10/23 03:59:29;;;;;;;1.95;0.88;;;15.60;86.90;;;;;;4207643;28;20051;-65
2021/10/23 04:01:52;;;;;;;3.25;1.13;;;15.70;87.00;;;;;;4207521;28;20126;-65
2021/10/23 04:04:17;;;;;;;3.03;0.95;;;15.60;87.00;;;;;;4207560;28;20414;-63
2021/10/23 04:06:40;;;;;;;3.33;1.00;;;15.60;87.10;;;;;;4207306;28;20097;-65
2021/10/23 04:09:03;;;;;;;4.85;0.95;;;15.60;86.90;;;;;;4207426;28;20067;-65
2021/10/23 04:11:24;;;;;;;1.98;1.17;;;15.50;87.40;;;;;;4207687;28;20134;-64
2021/10/23 04:13:47;;;;;;;2.20;0.50;;;15.50;87.00;;;;;;4207388;28;20122;-65
2021/10/23 04:16:08;;;;;;;1.90;0.70;;;15.50;87.00;;;;;;4207568;28;20081;-64
2021/10/23 04:18:31;;;;;;;2.88;0.95;;;15.40;87.10;;;;;;4207396;28;20543;-65
2021/10/23 04:20:53;;;;;;;4.85;0.88;;;15.40;87.10;;;;;;4193368;28;20430;-64
2021/10/23 04:23:16;;;;;;;4.40;1.05;;;15.40;87.20;;;;;;4193855;28;20052;-64
2021/10/23 04:25:38;;;;;;;3.33;0.93;;;15.40;87.10;;;;;;4198819;28;20070;-65
2021/10/23 04:28:00;;;;;;;2.85;1.00;;;15.40;87.30;;;;;;4210562;28;20121;-64
2021/10/23 04:30:22;;;;;;;2.70;0.70;;;15.30;87.40;;;;;;4210141;28;20055;-65
2021/10/23 04:32:44;;;;;;;3.28;1.08;;;15.30;87.20;;;;;;4210410;28;20130;-65
2021/10/23 04:35:07;;;;;;;3.38;0.93;;;15.30;87.20;;;;;;4227239;27;20051;-65
2021/10/23 04:37:29;;;;;;;3.97;0.90;;;15.30;87.70;;;;;;4193385;28;20044;-65
2021/10/23 04:39:52;;;;;;;2.35;1.40;;;15.40;88.00;;;;;;4193717;28;20056;-64
2021/10/23 04:42:14;;;;;;;3.35;1.10;;;15.50;87.40;;;;;;4193511;28;20094;-65
2021/10/23 04:44:36;;;;;;;2.88;1.13;;;15.60;87.20;;;;;;4193391;28;20048;-65
2021/10/23 04:46:59;;;;;;;1.90;0.80;;;15.70;87.00;;;;;;4193491;28;20044;-65
2021/10/23 04:49:21;;;;;;;2.35;0.80;;;15.60;86.80;;;;;;4193940;28;20048;-65
2021/10/23 04:51:43;;;;;;;2.92;0.95;;;15.70;86.90;;;;;;4193359;28;20498;-65
2021/10/23 04:54:05;;;;;;;2.70;1.00;;;15.70;86.60;;;;;;4193301;28;20067;-65
2021/10/23 04:56:29;;;;;;;2.95;0.98;;;15.70;86.70;;;;;;4206223;28;20498;-65
2021/10/23 04:58:51;;;;;;;3.78;0.90;;;15.70;86.30;;;;;;4209989;28;20486;-64
2021/10/23 05:01:13;;;;;;;3.97;1.35;;;15.70;86.50;;;;;;4210024;28;20093;-66
2021/10/23 05:03:36;;;;;;;1.58;0.88;;;15.80;86.60;;;;;;4210051;28;20123;-66
2021/10/23 05:05:58;;;;;;;1.83;0.80;;;15.70;86.60;;;;;;4217531;27;20065;-66
2021/10/23 05:08:20;;;;;;;2.17;1.05;;;15.70;86.50;;;;;;4226705;27;20047;-65
2021/10/23 05:10:42;;;;;;;1.67;1.05;;;15.70;86.50;;;;;;4226506;27;20047;-66
2021/10/23 05:13:06;;;;;;;7.43;1.55;;;15.70;86.50;;;;;;4226653;27;20508;-65
2021/10/23 05:15:28;;;;;;;3.42;0.93;;;15.70;86.30;;;;;;4226160;27;20044;-64
2021/10/23 05:17:50;;;;;;;2.25;1.00;;;15.70;86.40;;;;;;4221207;27;20056;-64
2021/10/23 05:20:12;;;;;;;2.60;0.95;;;15.70;86.50;;;;;;4209713;28;20059;-66
2021/10/23 05:22:35;;;;;;;2.95;1.08;;;15.70;86.50;;;;;;4209840;28;20106;-66
2021/10/23 05:24:56;;;;;;;4.07;0.90;;;15.70;86.70;;;;;;4210068;28;20501;-66
2021/10/23 05:27:18;;;;;;;2.10;0.98;;;15.60;86.80;;;;;;4226126;27;20047;-64
2021/10/23 05:29:42;;;;;;;3.00;0.70;;;15.70;87.90;;;;;;4226468;27;20104;-65
2021/10/23 05:32:05;;;;;;;2.55;0.50;;;15.70;87.00;;;;;;4224854;27;20051;-65
2021/10/23 05:34:26;;;;;;;1.90;0.70;;;15.70;86.80;;;;;;4226202;27;20043;-65
2021/10/23 05:36:49;;;;;;;4.40;0.70;;;15.80;86.50;;;;;;4225927;27;20051;-65
2021/10/23 05:39:11;;;;;;;2.72;1.15;;;15.90;86.20;;;;;;4226203;27;20409;-65
2021/10/23 05:41:33;;;;;;;1.95;0.88;;;15.90;86.00;;;;;;4225972;27;20065;-65
2021/10/23 05:43:55;;;;;;;4.07;1.02;;;15.90;85.60;;;;;;4226075;27;20055;-64
2021/10/23 05:46:19;;;;;;;0.88;0.60;;;15.90;85.50;;;;;;4215235;27;20086;-65
2021/10/23 05:48:41;;;;;;;2.20;0.93;;;15.90;85.10;;;;;;4208734;28;20143;-62
2021/10/23 05:51:03;;;;;;;4.65;1.33;;;15.90;85.40;;;;;;4208744;28;20054;-65
2021/10/23 05:53:26;;;;;;;4.60;1.20;;;15.90;85.60;;;;;;4209065;28;20596;-65
2021/10/23 05:55:48;;;;;;;4.25;1.30;;;15.90;85.70;;;;;;4209655;28;20152;-65
2021/10/23 05:58:10;;;;;;;3.15;1.15;;;15.90;85.70;;;;;;4208896;28;20537;-65
2021/10/23 06:00:35;;;;;;;4.63;1.52;;;15.80;85.90;;;;;;4209104;28;20128;-61
2021/10/23 06:03:00;;;;;;;4.95;1.02;;;15.80;85.80;;;;;;4208832;28;20051;-63
2021/10/23 06:05:22;;;;;;;3.67;0.98;;;15.90;86.00;;;;;;4209061;28;20130;-62
2021/10/23 06:07:44;;;;;;;7.70;1.55;;;15.90;86.00;;;;;;4208318;28;20578;-62
2021/10/23 06:10:09;;;;;;;3.75;1.13;;;15.90;85.70;;;;;;4208455;28;20055;-62
2021/10/23 06:12:35;;;;;;;2.40;1.40;;;15.90;85.70;;;;;;4208654;28;20071;-62
2021/10/23 06:14:57;;;;;;;2.58;1.33;;;15.80;85.90;;;;;;4208498;28;20055;-61
2021/10/23 06:17:19;;;;;;;3.45;1.10;;;15.80;86.00;;;;;;4191851;28;20052;-62
2021/10/23 06:19:43;;;;;;;5.43;1.90;;;15.80;86.20;;;;;;4191760;28;20056;-61
2021/10/23 06:22:06;;;;;;;5.15;1.50;;;15.80;86.10;;;;;;4191844;28;20873;-62
2021/10/23 06:24:28;;;;;;;6.10;1.65;;;15.70;86.20;;;;;;4191696;28;20060;-63
2021/10/23 06:26:50;;;;;;;4.38;1.50;;;15.70;86.40;;;;;;4206907;28;20079;-62
2021/10/23 06:29:12;;;;;;;4.93;1.80;;;15.70;86.40;;;;;;4225392;27;20524;-63
2021/10/23 06:31:34;;;;;;;1.65;1.50;;;15.60;86.50;;;;;;4224388;27;20055;-62
2021/10/23 06:33:57;;;;;;;3.05;1.45;;;15.60;86.40;;;;;;4221156;27;20446;-63
2021/10/23 06:36:20;;;;;;;5.43;1.80;;;15.60;86.60;;;;;;4225041;27;20051;-63
2021/10/23 06:38:42;;;;;;;3.30;1.40;;;15.60;86.30;;;;;;4225503;27;20059;-63
2021/10/23 06:41:04;;;;;;;3.45;1.30;;;15.60;86.50;;;;;;4225053;27;20055;-62
2021/10/23 06:43:27;;;;;;;3.28;1.38;;;15.50;86.50;;;;;;4193471;28;20059;-62
2021/10/23 06:45:49;;;;;;;3.90;1.48;;;15.50;86.60;;;;;;4225086;27;20051;-62
2021/10/23 06:48:12;;;;;;;3.90;2.00;;;15.50;87.00;;;;;;4224986;27;20059;-62
2021/10/23 06:50:34;;;;;;;4.75;1.25;;;15.50;87.20;;;;;;4224611;27;20169;-62
2021/10/23 06:52:57;;;;;;;4.53;1.52;;;15.60;87.50;;;;;;4216223;27;20075;-62
2021/10/23 06:55:19;;;;;;;3.92;1.33;;;15.60;87.10;;;;;;4189853;28;20052;-61
2021/10/23 06:57:46;;;;;;;4.70;1.83;;;15.70;87.30;;;;;;4191536;28;20079;-62
2021/10/23 07:00:09;;;;;;;4.60;1.15;;;15.70;87.30;;;;;;4191491;28;20048;-62
2021/10/23 07:02:38;;;;;;;4.90;1.67;;;15.70;87.10;;;;;;4191326;28;20490;-62
2021/10/23 07:05:00;;;;;;;1.77;0.88;;;15.80;86.60;;;;;;4191020;28;20136;-62
2021/10/23 07:07:23;;;;;;;4.57;1.73;;;15.80;86.70;;;;;;4191419;28;20139;-62
2021/10/23 07:09:46;;;;;;;3.50;1.45;;;15.80;86.60;;;;;;4191427;28;20041;-62
2021/10/23 07:12:08;;;;;;;3.53;1.20;;;15.90;86.40;;;;;;4191327;28;20040;-61
2021/10/23 07:14:30;;;;;;;4.65;1.33;;;15.90;86.30;;;;;;4207524;28;20105;-61
2021/10/23 07:16:52;;;;;;;2.53;1.02;;;15.90;86.40;;;;;;4224732;27;20047;-62
2021/10/23 07:19:14;;;;;;;3.75;1.15;;;15.90;86.20;;;;;;4221745;27;20054;-62
2021/10/23 07:21:36;;;;;;;4.53;1.30;;;15.80;86.20;;;;;;4223972;27;20059;-62
2021/10/23 07:23:59;;;;;;;3.22;1.20;;;15.80;86.30;;;;;;4223096;27;20116;-62
2021/10/23 07:26:23;;;;;;;5.30;1.90;;;15.80;86.10;;;;;;4224534;27;20051;-62
2021/10/23 07:28:45;;;;;;;2.60;1.48;;;15.80;86.30;;;;;;4224757;27;20489;-62
2021/10/23 07:31:08;;;;;;;2.90;1.40;;;15.80;86.60;;;;;;4214293;27;20535;-62
2021/10/23 07:33:30;;;;;;;2.60;1.35;;;15.80;86.50;;;;;;4207660;28;20074;-62
2021/10/23 07:35:55;;;;;;;4.90;1.38;;;15.80;86.70;;;;;;4209475;27;20062;-62
2021/10/23 07:38:18;;;;;;;3.47;0.98;;;15.70;86.90;;;;;;4218959;27;20133;-62
2021/10/23 07:40:40;;;;;;;2.70;1.15;;;15.70;86.80;;;;;;4203352;28;20105;-63
2021/10/23 07:43:04;;;;;;;3.78;1.20;;;15.70;86.80;;;;;;4192141;28;20049;-62
2021/10/23 07:45:25;;;;;;;3.45;1.25;;;15.70;86.80;;;;;;4213583;27;20054;-61
2021/10/23 07:47:48;;;;;;;1.70;1.00;;;15.60;86.80;;;;;;4206370;28;20105;-61
2021/10/23 07:50:11;;;;;;;3.65;1.30;;;15.60;86.90;;;;;;4206130;28;20501;-61
2021/10/23 07:52:33;;;;;;;4.63;1.38;;;15.70;87.00;;;;;;4200071;28;20048;-61
2021/10/23 07:54:55;;;;;;;2.58;1.08;;;15.60;86.90;;;;;;4205689;28;20048;-61
2021/10/23 07:57:18;;;;;;;2.47;1.10;;;15.60;86.90;;;;;;4210862;28;20130;-62
2021/10/23 07:59:41;;;;;;;3.40;1.20;;;15.60;86.90;;;;;;4210853;28;20048;-61
2021/10/23 08:02:04;;;;;;;6.75;1.60;;;15.60;87.10;;;;;;4210988;28;20052;-63
2021/10/23 08:04:26;;;;;;;4.43;1.60;;;15.50;87.30;;;;;;4210614;28;20047;-63
2021/10/23 08:06:48;;;;;;;6.28;1.30;;;15.50;87.40;;;;;;4210696;28;20139;-60
2021/10/23 08:09:12;;;;;;;6.28;1.35;;;15.60;88.10;;;;;;4211101;28;20097;-60
2021/10/23 08:11:34;;;;;;;4.30;1.30;;;15.60;87.70;;;;;;4210783;28;20097;-60
2021/10/23 08:13:56;;;;;;;5.03;1.27;;;15.50;88.10;;;;;;4210712;28;20551;-60
2021/10/23 08:16:20;;;;;;;5.32;1.50;;;15.50;87.90;;;;;;4209858;28;20047;-60
2021/10/23 08:18:42;;;;;;;4.03;1.58;;;15.40;87.60;;;;;;4227258;27;20134;-60
2021/10/23 08:21:04;;;;;;;7.68;1.63;;;15.40;87.80;;;;;;4227305;27;20070;-60
2021/10/23 08:23:26;;;;;;;8.35;2.60;;;15.40;87.60;;;;;;4227624;27;20067;-61
2021/10/23 08:25:51;;;;;;;1.77;1.05;;;15.30;87.60;;;;;;4210473;28;20048;-60
2021/10/23 08:28:13;;;;;;;3.95;1.33;;;15.30;87.60;;;;;;4210404;28;20130;-60
2021/10/23 08:30:35;;;;;;;4.22;1.17;;;15.30;87.90;;;;;;4210229;28;20502;-60
2021/10/23 08:32:59;;;;;;;4.40;1.38;;;15.30;88.00;;;;;;4210348;28;20135;-60
2021/10/23 08:35:22;;;;;;;6.00;1.90;;;15.30;87.70;;;;;;4210026;28;20149;-60
2021/10/23 08:37:45;;;;;;;3.25;1.20;;;15.20;87.90;;;;;;4209696;28;20048;-61
2021/10/23 08:40:08;;;;;;;3.28;1.23;;;15.20;87.70;;;;;;4210530;28;20044;-60
2021/10/23 08:42:31;;;;;;;6.78;2.03;;;15.20;88.20;;;;;;4210395;28;20056;-60
2021/10/23 08:44:57;;;;;;;3.13;0.95;;;15.10;88.80;;;;;;4193633;28;20478;-60
2021/10/23 08:47:20;;;;;;;4.20;1.48;;;15.10;88.20;;;;;;4193452;28;20052;-61
2021/10/23 08:49:45;;;;;;;3.45;1.05;;;15.10;88.50;;;;;;4193304;28;20875;-60
2021/10/23 08:52:07;;;;;;;4.20;1.35;;;15.10;88.30;;;;;;4193509;28;20041;-60
2021/10/23 08:54:32;;;;;;;3.38;1.42;;;15.10;89.40;;;;;;4203523;27;20414;-61
2021/10/23 08:56:54;;;;;;;3.70;1.30;;;15.10;88.40;;;;;;4226855;27;20049;-60
2021/10/23 08:59:16;;;;;;;4.68;1.50;;;15.10;88.70;;;;;;4226994;27;20048;-60
2021/10/23 09:01:41;;;;;;;6.75;1.15;;;15.00;88.60;;;;;;4227086;27;20058;-60
2021/10/23 09:04:03;;;;;;;6.00;1.80;;;15.00;88.40;;;;;;4226863;27;20047;-60
2021/10/23 09:06:35;;;;;;;4.38;2.05;;;15.00;89.50;;;;;;4225065;27;20052;-61
2021/10/23 09:09:05;;;;;;;2.97;1.60;;;15.00;88.00;;;;;;4226323;27;20052;-61
2021/10/23 09:11:30;;;;;;;1.23;1.03;;;15.00;88.60;;;;;;4225241;28;20393;-60
2021/10/23 09:13:51;;;;;;;4.43;1.35;;;15.00;88.80;;;;;;4226588;27;20075;-60
2021/10/23 09:16:18;;;;;;;7.43;1.25;;;15.00;88.80;;;;;;4226545;27;20071;-60
2021/10/23 09:18:42;;;;;;;3.25;1.70;;;15.00;88.60;;;;;;4226153;27;20063;-60
2021/10/23 09:21:16;;;;;;;4.38;1.40;;;15.00;88.70;;;;;;4226742;27;20802;-60
2021/10/23 09:23:39;;;;;;;3.35;1.33;;;15.00;88.20;;;;;;4225785;27;20122;-60
2021/10/23 09:26:02;;;;;;;4.43;1.50;;;15.00;88.50;;;;;;4207755;28;20056;-61
2021/10/23 09:28:28;;;;;;;6.60;1.40;;;15.00;88.80;;;;;;4209614;28;20058;-60
2021/10/23 09:30:51;;;;;;;4.78;1.23;;;15.00;88.70;;;;;;4212461;28;20064;-60
2021/10/23 09:33:14;;;;;;;6.63;1.52;;;15.00;89.00;;;;;;4226299;27;20051;-60
2021/10/23 09:35:39;;;;;;;8.10;1.83;;;15.00;89.00;;;;;;4225843;27;20812;-60
2021/10/23 09:38:02;;;;;;;4.70;1.70;;;15.00;89.00;;;;;;4226378;27;20077;-61
2021/10/23 09:40:27;;;;;;;5.38;1.88;;;15.00;89.30;;;;;;4226437;27;20509;-60
2021/10/23 09:43:14;;;;;;;4.95;1.48;;;15.00;88.90;;;;;;4225947;27;20047;-61
2021/10/23 09:45:38;;;;;;;3.63;1.10;;;15.00;88.20;;;;;;4225903;27;20559;-60
2021/10/23 09:48:06;;;;;;;8.10;1.50;;;15.00;88.90;;;;;;4226093;27;20093;-60
2021/10/23 09:50:28;;;;;;;3.45;1.55;;;15.00;88.40;;;;;;4225566;27;20490;-60
2021/10/23 09:53:04;;;;;;;7.15;1.83;;;15.00;88.70;;;;;;4226172;27;20047;-60
2021/10/23 09:55:29;;;;;;;4.75;1.58;;;15.00;88.00;;;;;;4224656;27;20047;-60
2021/10/23 09:58:07;;;;;;;3.38;1.27;;;15.00;88.40;;;;;;4226049;27;20566;-61
2021/10/23 10:00:29;;;;;;;5.32;1.30;;;15.00;88.10;;;;;;4225894;27;20134;-61
2021/10/23 10:02:51;;;;;;;7.20;1.73;;;15.00;88.70;;;;;;4225932;27;20048;-61
2021/10/23 10:05:14;;;;;;;4.75;1.27;;;15.00;88.80;;;;;;4225731;27;20135;-60
2021/10/23 10:07:37;;;;;;;6.40;1.77;;;15.00;88.60;;;;;;4225716;27;20429;-60
2021/10/23 10:10:00;;;;;;;5.65;1.20;;;15.00;88.50;;;;;;4225714;27;20063;-60
2021/10/23 10:12:24;;;;;;;4.93;1.60;;;15.10;88.50;;;;;;4225534;27;20135;-61
2021/10/23 10:14:47;;;;;;;4.78;1.35;;;15.10;88.30;;;;;;4225502;27;20112;-61
2021/10/23 10:17:09;;;;;;;2.95;1.23;;;15.10;88.20;;;;;;4225158;27;20135;-60
2021/10/23 10:19:32;;;;;;;5.70;1.60;;;15.10;88.50;;;;;;4225514;27;20459;-61
2021/10/23 10:21:54;;;;;;;2.85;1.50;;;15.10;88.20;;;;;;4225649;27;20052;-60
2021/10/23 10:24:19;;;;;;;4.20;1.40;;;15.10;87.50;;;;;;4217427;27;20048;-61
2021/10/23 10:26:41;;;;;;;3.42;1.50;;;15.10;87.90;;;;;;4208758;28;20071;-60
2021/10/23 10:29:18;;;;;;;5.22;1.20;;;15.10;88.60;;;;;;4208778;28;20056;-60
2021/10/23 10:31:54;;;;;;;4.80;1.67;;;15.10;87.80;;;;;;4208030;28;20080;-60
2021/10/23 10:35:10;;;;;;;5.53;1.30;;;15.10;88.20;;;;;;4191379;28;20087;-60
2021/10/23 10:37:46;;;;;;;5.70;1.85;;;15.10;88.50;;;;;;4175061;28;20041;-61
2021/10/23 10:43:04;;;;;;;5.05;1.17;;;15.20;88.00;;;;;;4190012;28;20048;-61
2021/10/23 10:45:29;;;;;;;7.03;1.40;;;15.20;89.00;;;;;;4191502;28;20479;-61
2021/10/23 10:48:11;;;;;;;5.65;1.33;;;15.20;88.80;;;;;;4191498;28;20052;-60
2021/10/23 10:50:37;;;;;;;5.82;1.35;;;15.20;88.00;;;;;;4191374;28;20055;-60
2021/10/23 10:52:59;;;;;;;3.30;1.35;;;15.20;88.40;;;;;;4191277;28;20052;-61
2021/10/23 10:55:22;;;;;;;4.25;1.10;;;15.20;88.60;;;;;;4191723;28;20048;-60
2021/10/23 10:57:58;;;;;;;3.97;0.98;;;15.20;88.10;;;;;;4191679;28;20058;-60
2021/10/23 11:00:20;;;;;;;7.90;1.63;;;15.30;87.40;;;;;;4191267;28;20630;-60
2021/10/23 11:02:44;;;;;;;5.25;1.73;;;15.30;88.10;;;;;;4191302;28;20056;-60
2021/10/23 11:05:20;;;;;;;4.57;1.00;;;15.30;88.10;;;;;;4191159;28;20059;-60
2021/10/23 11:08:04;;;;;;;2.45;0.80;;;15.30;87.20;;;;;;4191409;28;20495;-60
2021/10/23 11:10:49;;;;;;;3.58;0.77;;;15.30;87.50;;;;;;4191152;28;20155;-60
2021/10/23 11:13:25;;;;;;;4.15;1.42;;;15.30;87.80;;;;;;4190907;28;20478;-60
2021/10/23 11:15:47;;;;;;;3.50;1.10;;;15.30;87.10;;;;;;4190989;28;20104;-60
2021/10/23 11:18:11;;;;;;;3.97;0.93;;;15.30;87.80;;;;;;4190334;28;20121;-61
2021/10/23 11:20:33;;;;;;;3.65;1.45;;;15.30;87.50;;;;;;4190437;28;20044;-60
2021/10/23 11:22:56;;;;;;;3.67;1.40;;;15.40;87.60;;;;;;4191343;28;20056;-60
2021/10/23 11:25:25;;;;;;;2.63;1.27;;;15.30;87.80;;;;;;4190897;28;20102;-62
2021/10/23 11:27:49;;;;;;;5.32;1.00;;;15.30;87.30;;;;;;4180654;28;20040;-59
2021/10/23 11:30:20;;;;;;;8.20;1.40;;;15.40;88.60;;;;;;4193998;28;20056;-59
2021/10/23 11:32:47;;;;;;;4.45;1.23;;;15.40;86.80;;;;;;4189820;28;20052;-59
2021/10/23 11:35:11;;;;;;;2.40;0.93;;;15.50;87.00;;;;;;4194039;28;20479;-59
2021/10/23 11:37:33;;;;;;;2.50;0.85;;;15.50;87.00;;;;;;4194689;28;20495;-59
2021/10/23 11:39:59;;;;;;;4.43;1.17;;;15.50;86.80;;;;;;4209302;27;20048;-59
2021/10/23 11:42:22;;;;;;;3.45;1.00;;;15.50;86.60;;;;;;4192960;28;20048;-60
2021/10/23 11:44:44;;;;;;;2.92;1.13;;;15.60;87.10;;;;;;4194409;28;20056;-60
2021/10/23 11:47:06;;;;;;;4.18;1.30;;;15.60;86.60;;;;;;4194480;28;20076;-59
2021/10/23 11:49:32;;;;;;;2.30;1.00;;;15.60;86.80;;;;;;4194040;28;20074;-62
2021/10/23 11:51:56;;;;;;;6.65;1.70;;;15.60;85.30;;;;;;4194182;28;20055;-60
2021/10/23 11:54:17;;;;;;;4.88;1.17;;;15.60;85.90;;;;;;4194271;28;20462;-59
2021/10/23 11:56:49;;;;;;;4.40;1.48;;;15.60;85.70;;;;;;4194342;28;20052;-58
2021/10/23 11:59:11;;;;;;;6.18;1.17;;;15.60;85.30;;;;;;4193677;28;20056;-59
2021/10/23 12:01:36;;;;;;;6.88;1.70;;;15.60;85.70;;;;;;4177512;28;20561;-59
2021/10/23 12:03:59;;;;;;;2.47;1.02;;;15.60;85.10;;;;;;4177656;28;20099;-58
2021/10/23 12:06:23;;;;;;;3.60;0.95;;;15.60;85.40;;;;;;4185828;28;20098;-59
2021/10/23 12:08:47;;;;;;;4.90;1.00;;;15.60;85.90;;;;;;4193806;28;20125;-59
2021/10/23 12:11:18;;;;;;;6.80;1.58;;;15.60;86.20;;;;;;4177545;28;20052;-59
2021/10/23 12:13:46;;;;;;;7.18;1.25;;;15.60;85.60;;;;;;4179007;28;20053;-58
2021/10/23 12:16:08;;;;;;;2.30;0.90;;;15.60;85.60;;;;;;4193127;28;20049;-59
2021/10/23 12:18:32;;;;;;;4.53;1.20;;;15.60;86.10;;;;;;4193880;28;20048;-59
2021/10/23 12:20:54;;;;;;;2.55;0.95;;;15.60;85.60;;;;;;4176820;28;20476;-58
2021/10/23 12:23:53;;;;;;;3.10;1.05;;;15.70;85.50;;;;;;4177212;28;20064;-59
2021/10/23 12:26:16;;;;;;;3.53;1.00;;;15.60;84.30;;;;;;4176658;28;20126;-58
2021/10/23 12:29:02;;;;;;;3.55;1.10;;;15.60;85.50;;;;;;4177004;28;20148;-59
2021/10/23 12:31:24;;;;;;;6.10;1.15;;;15.60;85.30;;;;;;4180897;28;20052;-59